sensor_id;sensor_type;location;lat;lon;timestamp;P1;durP1;ratioP1;P2;durP2;ratioP2
6215;SDS011;3141;49.234;9.326;2023-04-29T00:00:00;0.93;;;0.93;;
6215;SDS011;3141;49.234;9.326;2023-04-29T00:00:42;1.43;;;1.10;;
6215;SDS011;3141;49.234;9.326;2023-04-29T00:01:25;0.90;;;0.90;;
6215;SDS011;3141;49.234;9.326;2023-04-29T00:02:08;1.90;;;1.30;;
6215;SDS011;3141;49.234;9.326;2023-04-29T00:02:50;0.70;;;0.70;;
6215;SDS011;3141;49.234;9.326;2023-04-29T00:03:32;0.73;;;0.73;;
6215;SDS011;3141;49.234;9.326;2023-04-29T00:04:15;1.13;;;0.80;;
6215;SDS011;3141;49.234;9.326;2023-04-29T00:04:57;1.97;;;0.77;;
6215;SDS011;3141;49.234;9.326;2023-04-29T00:05:39;1.13;;;1.03;;
6215;SDS011;3141;49.234;9.326;2023-04-29T00:06:22;0.67;;;0.67;;
6215;SDS011;3141;49.234;9.326;2023-04-29T00:07:04;0.60;;;0.60;;
6215;SDS011;3141;49.234;9.326;2023-04-29T00:07:47;0.50;;;0.50;;
6215;SDS011;3141;49.234;9.326;2023-04-29T00:08:29;0.57;;;0.57;;
6215;SDS011;3141;49.234;9.326;2023-04-29T00:09:11;0.53;;;0.53;;
6215;SDS011;3141;49.234;9.326;2023-04-29T00:09:54;0.77;;;0.77;;
6215;SDS011;3141;49.234;9.326;2023-04-29T00:10:36;1.70;;;0.90;;
6215;SDS011;3141;49.234;9.326;2023-04-29T00:11:20;0.60;;;0.60;;
6215;SDS011;3141;49.234;9.326;2023-04-29T00:12:02;0.83;;;0.83;;
6215;SDS011;3141;49.234;9.326;2023-04-29T00:12:45;0.80;;;0.80;;
6215;SDS011;3141;49.234;9.326;2023-04-29T00:13:27;0.40;;;0.40;;
6215;SDS011;3141;49.234;9.326;2023-04-29T00:14:09;2.60;;;1.00;;
6215;SDS011;3141;49.234;9.326;2023-04-29T00:14:52;0.63;;;0.63;;
6215;SDS011;3141;49.234;9.326;2023-04-29T00:15:34;0.73;;;0.73;;
6215;SDS011;3141;49.234;9.326;2023-04-29T00:16:18;0.60;;;0.45;;
6215;SDS011;3141;49.234;9.326;2023-04-29T00:17:00;1.60;;;1.50;;
6215;SDS011;3141;49.234;9.326;2023-04-29T00:17:42;0.40;;;0.40;;
6215;SDS011;3141;49.234;9.326;2023-04-29T00:18:26;3.10;;;0.90;;
6215;SDS011;3141;49.234;9.326;2023-04-29T00:19:08;0.50;;;0.50;;
6215;SDS011;3141;49.234;9.326;2023-04-29T00:19:51;0.83;;;0.60;;
6215;SDS011;3141;49.234;9.326;2023-04-29T00:20:33;0.70;;;0.70;;
6215;SDS011;3141;49.234;9.326;2023-04-29T00:21:15;0.60;;;0.60;;
6215;SDS011;3141;49.234;9.326;2023-04-29T00:21:58;0.97;;;0.87;;
6215;SDS011;3141;49.234;9.326;2023-04-29T00:22:40;0.33;;;0.33;;
6215;SDS011;3141;49.234;9.326;2023-04-29T00:23:22;1.60;;;0.57;;
6215;SDS011;3141;49.234;9.326;2023-04-29T00:24:05;0.70;;;0.70;;
6215;SDS011;3141;49.234;9.326;2023-04-29T00:24:47;0.50;;;0.50;;
6215;SDS011;3141;49.234;9.326;2023-04-29T00:25:30;0.50;;;0.50;;
6215;SDS011;3141;49.234;9.326;2023-04-29T00:26:12;0.50;;;0.50;;
6215;SDS011;3141;49.234;9.326;2023-04-29T00:26:55;1.27;;;1.03;;
6215;SDS011;3141;49.234;9.326;2023-04-29T00:27:37;0.47;;;0.47;;
6215;SDS011;3141;49.234;9.326;2023-04-29T00:28:20;0.93;;;0.93;;
6215;SDS011;3141;49.234;9.326;2023-04-29T00:29:02;0.30;;;0.30;;
6215;SDS011;3141;49.234;9.326;2023-04-29T00:29:45;0.43;;;0.43;;
6215;SDS011;3141;49.234;9.326;2023-04-29T00:30:27;1.23;;;0.70;;
6215;SDS011;3141;49.234;9.326;2023-04-29T00:31:10;1.10;;;1.10;;
6215;SDS011;3141;49.234;9.326;2023-04-29T00:31:52;0.90;;;0.90;;
6215;SDS011;3141;49.234;9.326;2023-04-29T00:32:34;0.63;;;0.63;;
6215;SDS011;3141;49.234;9.326;2023-04-29T00:33:17;0.50;;;0.50;;
6215;SDS011;3141;49.234;9.326;2023-04-29T00:33:59;0.53;;;0.53;;
6215;SDS011;3141;49.234;9.326;2023-04-29T00:34:42;0.43;;;0.43;;
6215;SDS011;3141;49.234;9.326;2023-04-29T00:35:24;0.63;;;0.63;;
6215;SDS011;3141;49.234;9.326;2023-04-29T00:36:07;0.47;;;0.47;;
6215;SDS011;3141;49.234;9.326;2023-04-29T00:36:49;0.87;;;0.87;;
6215;SDS011;3141;49.234;9.326;2023-04-29T00:37:31;0.73;;;0.70;;
6215;SDS011;3141;49.234;9.326;2023-04-29T00:38:14;0.63;;;0.63;;
6215;SDS011;3141;49.234;9.326;2023-04-29T00:38:56;0.57;;;0.57;;
6215;SDS011;3141;49.234;9.326;2023-04-29T00:39:39;0.60;;;0.60;;
6215;SDS011;3141;49.234;9.326;2023-04-29T00:40:21;0.57;;;0.57;;
6215;SDS011;3141;49.234;9.326;2023-04-29T00:41:03;0.63;;;0.57;;
6215;SDS011;3141;49.234;9.326;2023-04-29T00:41:47;0.43;;;0.43;;
6215;SDS011;3141;49.234;9.326;2023-04-29T00:42:29;0.50;;;0.50;;
6215;SDS011;3141;49.234;9.326;2023-04-29T00:43:13;0.38;;;0.38;;
6215;SDS011;3141;49.234;9.326;2023-04-29T00:43:55;1.03;;;0.70;;
6215;SDS011;3141;49.234;9.326;2023-04-29T00:44:37;3.93;;;0.90;;
6215;SDS011;3141;49.234;9.326;2023-04-29T00:45:20;3.60;;;1.37;;
6215;SDS011;3141;49.234;9.326;2023-04-29T00:46:02;0.67;;;0.67;;
6215;SDS011;3141;49.234;9.326;2023-04-29T00:46:44;0.70;;;0.70;;
6215;SDS011;3141;49.234;9.326;2023-04-29T00:47:27;0.77;;;0.77;;
6215;SDS011;3141;49.234;9.326;2023-04-29T00:48:09;0.70;;;0.70;;
6215;SDS011;3141;49.234;9.326;2023-04-29T00:48:51;0.47;;;0.47;;
6215;SDS011;3141;49.234;9.326;2023-04-29T00:49:34;0.47;;;0.47;;
6215;SDS011;3141;49.234;9.326;2023-04-29T00:50:16;0.50;;;0.50;;
6215;SDS011;3141;49.234;9.326;2023-04-29T00:50:59;2.00;;;1.50;;
6215;SDS011;3141;49.234;9.326;2023-04-29T00:51:41;1.07;;;0.83;;
6215;SDS011;3141;49.234;9.326;2023-04-29T00:52:23;0.70;;;0.70;;
6215;SDS011;3141;49.234;9.326;2023-04-29T00:53:08;0.45;;;0.45;;
6215;SDS011;3141;49.234;9.326;2023-04-29T00:53:53;1.05;;;1.05;;
6215;SDS011;3141;49.234;9.326;2023-04-29T00:54:36;2.87;;;0.83;;
6215;SDS011;3141;49.234;9.326;2023-04-29T00:55:19;0.50;;;0.50;;
6215;SDS011;3141;49.234;9.326;2023-04-29T00:56:02;0.60;;;0.60;;
6215;SDS011;3141;49.234;9.326;2023-04-29T00:56:45;0.40;;;0.40;;
6215;SDS011;3141;49.234;9.326;2023-04-29T00:57:28;0.80;;;0.70;;
6215;SDS011;3141;49.234;9.326;2023-04-29T00:58:11;0.90;;;0.90;;
6215;SDS011;3141;49.234;9.326;2023-04-29T00:58:53;0.60;;;0.60;;
6215;SDS011;3141;49.234;9.326;2023-04-29T00:59:36;0.60;;;0.53;;
6215;SDS011;3141;49.234;9.326;2023-04-29T01:00:19;0.52;;;0.52;;
6215;SDS011;3141;49.234;9.326;2023-04-29T01:01:02;2.63;;;0.87;;
6215;SDS011;3141;49.234;9.326;2023-04-29T01:01:44;0.53;;;0.53;;
6215;SDS011;3141;49.234;9.326;2023-04-29T01:02:27;1.20;;;1.03;;
6215;SDS011;3141;49.234;9.326;2023-04-29T01:03:10;0.97;;;0.97;;
6215;SDS011;3141;49.234;9.326;2023-04-29T01:03:54;0.68;;;0.68;;
6215;SDS011;3141;49.234;9.326;2023-04-29T01:04:37;0.40;;;0.40;;
6215;SDS011;3141;49.234;9.326;2023-04-29T01:05:19;1.07;;;1.07;;
6215;SDS011;3141;49.234;9.326;2023-04-29T01:06:09;0.20;;;0.20;;
6215;SDS011;3141;49.234;9.326;2023-04-29T01:11:12;0.28;;;0.28;;
6215;SDS011;3141;49.234;9.326;2023-04-29T01:12:05;0.73;;;0.73;;
6215;SDS011;3141;49.234;9.326;2023-04-29T01:13:45;0.50;;;0.50;;
6215;SDS011;3141;49.234;9.326;2023-04-29T01:14:32;0.47;;;0.47;;
6215;SDS011;3141;49.234;9.326;2023-04-29T01:15:17;0.70;;;0.70;;
6215;SDS011;3141;49.234;9.326;2023-04-29T01:16:03;1.00;;;0.90;;
6215;SDS011;3141;49.234;9.326;2023-04-29T01:16:53;0.50;;;0.50;;
6215;SDS011;3141;49.234;9.326;2023-04-29T01:17:47;0.73;;;0.73;;
6215;SDS011;3141;49.234;9.326;2023-04-29T01:18:38;0.50;;;0.50;;
6215;SDS011;3141;49.234;9.326;2023-04-29T01:20:38;0.60;;;0.60;;
6215;SDS011;3141;49.234;9.326;2023-04-29T01:21:23;0.88;;;0.88;;
6215;SDS011;3141;49.234;9.326;2023-04-29T01:22:06;1.02;;;0.80;;
6215;SDS011;3141;49.234;9.326;2023-04-29T01:22:48;0.73;;;0.73;;
6215;SDS011;3141;49.234;9.326;2023-04-29T01:23:30;0.47;;;0.47;;
6215;SDS011;3141;49.234;9.326;2023-04-29T01:24:13;0.67;;;0.67;;
6215;SDS011;3141;49.234;9.326;2023-04-29T01:24:56;1.55;;;1.10;;
6215;SDS011;3141;49.234;9.326;2023-04-29T01:25:39;0.70;;;0.70;;
6215;SDS011;3141;49.234;9.326;2023-04-29T01:26:22;0.50;;;0.50;;
6215;SDS011;3141;49.234;9.326;2023-04-29T01:27:10;1.10;;;1.10;;
6215;SDS011;3141;49.234;9.326;2023-04-29T01:28:20;0.30;;;0.30;;
6215;SDS011;3141;49.234;9.326;2023-04-29T01:31:35;1.95;;;1.10;;
6215;SDS011;3141;49.234;9.326;2023-04-29T01:32:34;0.70;;;0.70;;
6215;SDS011;3141;49.234;9.326;2023-04-29T01:34:43;0.70;;;0.70;;
6215;SDS011;3141;49.234;9.326;2023-04-29T01:35:49;0.43;;;0.43;;
6215;SDS011;3141;49.234;9.326;2023-04-29T01:36:39;0.60;;;0.60;;
6215;SDS011;3141;49.234;9.326;2023-04-29T01:37:44;0.70;;;0.70;;
6215;SDS011;3141;49.234;9.326;2023-04-29T01:38:41;0.40;;;0.40;;
6215;SDS011;3141;49.234;9.326;2023-04-29T01:39:36;0.30;;;0.30;;
6215;SDS011;3141;49.234;9.326;2023-04-29T01:40:29;0.52;;;0.52;;
6215;SDS011;3141;49.234;9.326;2023-04-29T01:41:26;0.75;;;0.75;;
6215;SDS011;3141;49.234;9.326;2023-04-29T01:43:05;0.52;;;0.47;;
6215;SDS011;3141;49.234;9.326;2023-04-29T01:43:52;0.52;;;0.52;;
6215;SDS011;3141;49.234;9.326;2023-04-29T01:44:37;1.60;;;0.68;;
6215;SDS011;3141;49.234;9.326;2023-04-29T01:45:22;0.88;;;0.57;;
6215;SDS011;3141;49.234;9.326;2023-04-29T01:46:05;0.57;;;0.57;;
6215;SDS011;3141;49.234;9.326;2023-04-29T01:46:50;1.35;;;1.25;;
6215;SDS011;3141;49.234;9.326;2023-04-29T01:47:35;0.85;;;0.40;;
6215;SDS011;3141;49.234;9.326;2023-04-29T01:48:18;4.10;;;0.88;;
6215;SDS011;3141;49.234;9.326;2023-04-29T01:49:01;0.80;;;0.80;;
6215;SDS011;3141;49.234;9.326;2023-04-29T01:49:43;0.50;;;0.50;;
6215;SDS011;3141;49.234;9.326;2023-04-29T01:50:27;1.17;;;1.08;;
6215;SDS011;3141;49.234;9.326;2023-04-29T01:51:10;0.47;;;0.47;;
6215;SDS011;3141;49.234;9.326;2023-04-29T01:51:52;1.23;;;0.67;;
6215;SDS011;3141;49.234;9.326;2023-04-29T01:52:34;0.73;;;0.73;;
6215;SDS011;3141;49.234;9.326;2023-04-29T01:53:17;0.70;;;0.70;;
6215;SDS011;3141;49.234;9.326;2023-04-29T01:54:00;2.10;;;1.00;;
6215;SDS011;3141;49.234;9.326;2023-04-29T01:54:42;0.50;;;0.50;;
6215;SDS011;3141;49.234;9.326;2023-04-29T01:55:25;2.40;;;0.90;;
6215;SDS011;3141;49.234;9.326;2023-04-29T01:56:07;0.60;;;0.60;;
6215;SDS011;3141;49.234;9.326;2023-04-29T01:56:49;1.30;;;1.20;;
6215;SDS011;3141;49.234;9.326;2023-04-29T01:57:33;0.80;;;0.80;;
6215;SDS011;3141;49.234;9.326;2023-04-29T01:58:15;1.13;;;1.03;;
6215;SDS011;3141;49.234;9.326;2023-04-29T01:58:57;0.80;;;0.80;;
6215;SDS011;3141;49.234;9.326;2023-04-29T01:59:40;0.53;;;0.53;;
6215;SDS011;3141;49.234;9.326;2023-04-29T02:00:22;0.40;;;0.40;;
6215;SDS011;3141;49.234;9.326;2023-04-29T02:01:05;0.50;;;0.50;;
6215;SDS011;3141;49.234;9.326;2023-04-29T02:01:47;0.60;;;0.60;;
6215;SDS011;3141;49.234;9.326;2023-04-29T02:02:30;0.67;;;0.67;;
6215;SDS011;3141;49.234;9.326;2023-04-29T02:03:12;1.13;;;1.13;;
6215;SDS011;3141;49.234;9.326;2023-04-29T02:03:54;0.80;;;0.80;;
6215;SDS011;3141;49.234;9.326;2023-04-29T02:04:37;0.60;;;0.60;;
6215;SDS011;3141;49.234;9.326;2023-04-29T02:05:19;1.00;;;1.00;;
6215;SDS011;3141;49.234;9.326;2023-04-29T02:06:01;0.57;;;0.57;;
6215;SDS011;3141;49.234;9.326;2023-04-29T02:06:44;0.50;;;0.50;;
6215;SDS011;3141;49.234;9.326;2023-04-29T02:07:26;0.50;;;0.50;;
6215;SDS011;3141;49.234;9.326;2023-04-29T02:08:08;1.50;;;0.80;;
6215;SDS011;3141;49.234;9.326;2023-04-29T02:08:51;0.80;;;0.80;;
6215;SDS011;3141;49.234;9.326;2023-04-29T02:09:33;1.27;;;1.23;;
6215;SDS011;3141;49.234;9.326;2023-04-29T02:10:15;0.40;;;0.40;;
6215;SDS011;3141;49.234;9.326;2023-04-29T02:10:58;0.70;;;0.70;;
6215;SDS011;3141;49.234;9.326;2023-04-29T02:11:41;0.40;;;0.40;;
6215;SDS011;3141;49.234;9.326;2023-04-29T02:12:23;1.17;;;0.73;;
6215;SDS011;3141;49.234;9.326;2023-04-29T02:13:05;0.73;;;0.73;;
6215;SDS011;3141;49.234;9.326;2023-04-29T02:13:48;0.73;;;0.73;;
6215;SDS011;3141;49.234;9.326;2023-04-29T02:14:31;0.67;;;0.67;;
6215;SDS011;3141;49.234;9.326;2023-04-29T02:15:14;0.85;;;0.85;;
6215;SDS011;3141;49.234;9.326;2023-04-29T02:15:56;0.50;;;0.50;;
6215;SDS011;3141;49.234;9.326;2023-04-29T02:16:39;0.40;;;0.40;;
6215;SDS011;3141;49.234;9.326;2023-04-29T02:17:21;0.70;;;0.70;;
6215;SDS011;3141;49.234;9.326;2023-04-29T02:18:03;1.03;;;0.73;;
6215;SDS011;3141;49.234;9.326;2023-04-29T02:18:46;0.67;;;0.67;;
6215;SDS011;3141;49.234;9.326;2023-04-29T02:19:28;0.30;;;0.30;;
6215;SDS011;3141;49.234;9.326;2023-04-29T02:20:11;0.97;;;0.97;;
6215;SDS011;3141;49.234;9.326;2023-04-29T02:20:58;1.17;;;0.90;;
6215;SDS011;3141;49.234;9.326;2023-04-29T02:21:41;2.65;;;1.02;;
6215;SDS011;3141;49.234;9.326;2023-04-29T02:22:24;0.70;;;0.70;;
6215;SDS011;3141;49.234;9.326;2023-04-29T02:23:06;0.47;;;0.47;;
6215;SDS011;3141;49.234;9.326;2023-04-29T02:23:49;1.27;;;0.80;;
6215;SDS011;3141;49.234;9.326;2023-04-29T02:24:31;0.60;;;0.60;;
6215;SDS011;3141;49.234;9.326;2023-04-29T02:25:14;0.57;;;0.57;;
6215;SDS011;3141;49.234;9.326;2023-04-29T02:25:56;0.80;;;0.77;;
6215;SDS011;3141;49.234;9.326;2023-04-29T02:26:39;0.50;;;0.50;;
6215;SDS011;3141;49.234;9.326;2023-04-29T02:27:21;0.50;;;0.50;;
6215;SDS011;3141;49.234;9.326;2023-04-29T02:28:03;0.50;;;0.50;;
6215;SDS011;3141;49.234;9.326;2023-04-29T02:28:46;6.90;;;0.80;;
6215;SDS011;3141;49.234;9.326;2023-04-29T02:29:28;0.80;;;0.80;;
6215;SDS011;3141;49.234;9.326;2023-04-29T02:30:12;0.50;;;0.50;;
6215;SDS011;3141;49.234;9.326;2023-04-29T02:30:54;1.10;;;1.10;;
6215;SDS011;3141;49.234;9.326;2023-04-29T02:31:36;0.70;;;0.70;;
6215;SDS011;3141;49.234;9.326;2023-04-29T02:32:19;2.20;;;0.80;;
6215;SDS011;3141;49.234;9.326;2023-04-29T02:33:01;0.60;;;0.60;;
6215;SDS011;3141;49.234;9.326;2023-04-29T02:33:44;0.90;;;0.90;;
6215;SDS011;3141;49.234;9.326;2023-04-29T02:34:26;0.63;;;0.63;;
6215;SDS011;3141;49.234;9.326;2023-04-29T02:35:09;0.57;;;0.57;;
6215;SDS011;3141;49.234;9.326;2023-04-29T02:35:51;0.70;;;0.70;;
6215;SDS011;3141;49.234;9.326;2023-04-29T02:36:33;0.73;;;0.73;;
6215;SDS011;3141;49.234;9.326;2023-04-29T02:37:16;0.63;;;0.50;;
6215;SDS011;3141;49.234;9.326;2023-04-29T02:37:58;1.33;;;0.63;;
6215;SDS011;3141;49.234;9.326;2023-04-29T02:38:40;5.30;;;0.63;;
6215;SDS011;3141;49.234;9.326;2023-04-29T02:39:23;0.30;;;0.30;;
6215;SDS011;3141;49.234;9.326;2023-04-29T02:40:06;0.57;;;0.57;;
6215;SDS011;3141;49.234;9.326;2023-04-29T02:40:48;1.70;;;1.60;;
6215;SDS011;3141;49.234;9.326;2023-04-29T02:41:31;0.77;;;0.77;;
6215;SDS011;3141;49.234;9.326;2023-04-29T02:42:14;0.60;;;0.60;;
6215;SDS011;3141;49.234;9.326;2023-04-29T02:42:56;2.87;;;0.63;;
6215;SDS011;3141;49.234;9.326;2023-04-29T02:43:38;0.50;;;0.50;;
6215;SDS011;3141;49.234;9.326;2023-04-29T02:44:20;0.93;;;0.93;;
6215;SDS011;3141;49.234;9.326;2023-04-29T02:45:03;0.40;;;0.40;;
6215;SDS011;3141;49.234;9.326;2023-04-29T02:45:46;0.57;;;0.57;;
6215;SDS011;3141;49.234;9.326;2023-04-29T02:46:28;1.00;;;0.83;;
6215;SDS011;3141;49.234;9.326;2023-04-29T02:47:10;1.03;;;0.60;;
6215;SDS011;3141;49.234;9.326;2023-04-29T02:47:53;0.53;;;0.53;;
6215;SDS011;3141;49.234;9.326;2023-04-29T02:48:35;0.67;;;0.67;;
6215;SDS011;3141;49.234;9.326;2023-04-29T02:49:17;2.83;;;0.53;;
6215;SDS011;3141;49.234;9.326;2023-04-29T02:50:00;1.50;;;0.70;;
6215;SDS011;3141;49.234;9.326;2023-04-29T02:50:42;0.83;;;0.70;;
6215;SDS011;3141;49.234;9.326;2023-04-29T02:51:24;0.57;;;0.57;;
6215;SDS011;3141;49.234;9.326;2023-04-29T02:52:06;0.30;;;0.30;;
6215;SDS011;3141;49.234;9.326;2023-04-29T02:52:49;0.63;;;0.60;;
6215;SDS011;3141;49.234;9.326;2023-04-29T02:53:31;0.37;;;0.37;;
6215;SDS011;3141;49.234;9.326;2023-04-29T02:54:14;1.20;;;1.20;;
6215;SDS011;3141;49.234;9.326;2023-04-29T02:54:57;0.40;;;0.40;;
6215;SDS011;3141;49.234;9.326;2023-04-29T02:55:39;0.53;;;0.53;;
6215;SDS011;3141;49.234;9.326;2023-04-29T02:56:22;0.47;;;0.47;;
6215;SDS011;3141;49.234;9.326;2023-04-29T02:57:04;3.63;;;0.70;;
6215;SDS011;3141;49.234;9.326;2023-04-29T02:57:46;0.67;;;0.63;;
6215;SDS011;3141;49.234;9.326;2023-04-29T02:58:29;0.37;;;0.37;;
6215;SDS011;3141;49.234;9.326;2023-04-29T02:59:11;0.43;;;0.43;;
6215;SDS011;3141;49.234;9.326;2023-04-29T02:59:53;0.67;;;0.67;;
6215;SDS011;3141;49.234;9.326;2023-04-29T03:00:36;0.40;;;0.40;;
6215;SDS011;3141;49.234;9.326;2023-04-29T03:01:18;0.50;;;0.50;;
6215;SDS011;3141;49.234;9.326;2023-04-29T03:02:00;0.57;;;0.57;;
6215;SDS011;3141;49.234;9.326;2023-04-29T03:02:43;0.67;;;0.67;;
6215;SDS011;3141;49.234;9.326;2023-04-29T03:03:25;0.63;;;0.63;;
6215;SDS011;3141;49.234;9.326;2023-04-29T03:04:08;0.70;;;0.70;;
6215;SDS011;3141;49.234;9.326;2023-04-29T03:04:50;0.40;;;0.40;;
6215;SDS011;3141;49.234;9.326;2023-04-29T03:05:33;0.90;;;0.90;;
6215;SDS011;3141;49.234;9.326;2023-04-29T03:06:16;0.53;;;0.53;;
6215;SDS011;3141;49.234;9.326;2023-04-29T03:06:58;0.70;;;0.70;;
6215;SDS011;3141;49.234;9.326;2023-04-29T03:07:40;0.53;;;0.53;;
6215;SDS011;3141;49.234;9.326;2023-04-29T03:08:23;0.47;;;0.47;;
6215;SDS011;3141;49.234;9.326;2023-04-29T03:09:05;0.93;;;0.93;;
6215;SDS011;3141;49.234;9.326;2023-04-29T03:09:47;0.93;;;0.90;;
6215;SDS011;3141;49.234;9.326;2023-04-29T03:10:30;0.73;;;0.73;;
6215;SDS011;3141;49.234;9.326;2023-04-29T03:11:12;0.60;;;0.60;;
6215;SDS011;3141;49.234;9.326;2023-04-29T03:11:54;1.60;;;0.87;;
6215;SDS011;3141;49.234;9.326;2023-04-29T03:12:37;0.50;;;0.50;;
6215;SDS011;3141;49.234;9.326;2023-04-29T03:13:20;2.15;;;1.23;;
6215;SDS011;3141;49.234;9.326;2023-04-29T03:14:02;2.00;;;0.70;;
6215;SDS011;3141;49.234;9.326;2023-04-29T03:14:45;0.90;;;0.90;;
6215;SDS011;3141;49.234;9.326;2023-04-29T03:15:27;1.03;;;0.93;;
6215;SDS011;3141;49.234;9.326;2023-04-29T03:16:10;0.93;;;0.93;;
6215;SDS011;3141;49.234;9.326;2023-04-29T03:16:55;0.50;;;0.50;;
6215;SDS011;3141;49.234;9.326;2023-04-29T03:17:37;0.50;;;0.50;;
6215;SDS011;3141;49.234;9.326;2023-04-29T03:18:19;0.60;;;0.60;;
6215;SDS011;3141;49.234;9.326;2023-04-29T03:19:02;0.73;;;0.73;;
6215;SDS011;3141;49.234;9.326;2023-04-29T03:19:44;0.67;;;0.67;;
6215;SDS011;3141;49.234;9.326;2023-04-29T03:20:26;0.67;;;0.67;;
6215;SDS011;3141;49.234;9.326;2023-04-29T03:21:10;0.55;;;0.55;;
6215;SDS011;3141;49.234;9.326;2023-04-29T03:21:52;1.03;;;1.03;;
6215;SDS011;3141;49.234;9.326;2023-04-29T03:22:35;0.80;;;0.80;;
6215;SDS011;3141;49.234;9.326;2023-04-29T03:23:18;0.93;;;0.93;;
6215;SDS011;3141;49.234;9.326;2023-04-29T03:24:00;0.93;;;0.93;;
6215;SDS011;3141;49.234;9.326;2023-04-29T03:24:42;0.77;;;0.77;;
6215;SDS011;3141;49.234;9.326;2023-04-29T03:25:25;0.93;;;0.90;;
6215;SDS011;3141;49.234;9.326;2023-04-29T03:26:07;0.30;;;0.30;;
6215;SDS011;3141;49.234;9.326;2023-04-29T03:26:50;0.70;;;0.70;;
6215;SDS011;3141;49.234;9.326;2023-04-29T03:27:32;0.40;;;0.40;;
6215;SDS011;3141;49.234;9.326;2023-04-29T03:28:14;0.40;;;0.40;;
6215;SDS011;3141;49.234;9.326;2023-04-29T03:28:57;1.17;;;1.07;;
6215;SDS011;3141;49.234;9.326;2023-04-29T03:29:39;1.60;;;1.13;;
6215;SDS011;3141;49.234;9.326;2023-04-29T03:30:22;1.20;;;0.73;;
6215;SDS011;3141;49.234;9.326;2023-04-29T03:31:04;0.53;;;0.53;;
6215;SDS011;3141;49.234;9.326;2023-04-29T03:31:46;0.60;;;0.60;;
6215;SDS011;3141;49.234;9.326;2023-04-29T03:32:29;0.47;;;0.47;;
6215;SDS011;3141;49.234;9.326;2023-04-29T03:33:11;1.10;;;1.10;;
6215;SDS011;3141;49.234;9.326;2023-04-29T03:33:53;0.57;;;0.57;;
6215;SDS011;3141;49.234;9.326;2023-04-29T03:34:36;0.93;;;0.50;;
6215;SDS011;3141;49.234;9.326;2023-04-29T03:35:18;1.07;;;1.07;;
6215;SDS011;3141;49.234;9.326;2023-04-29T03:36:00;1.13;;;1.03;;
6215;SDS011;3141;49.234;9.326;2023-04-29T03:36:44;0.70;;;0.70;;
6215;SDS011;3141;49.234;9.326;2023-04-29T03:37:26;2.83;;;1.80;;
6215;SDS011;3141;49.234;9.326;2023-04-29T03:38:08;1.90;;;1.30;;
6215;SDS011;3141;49.234;9.326;2023-04-29T03:38:51;0.93;;;0.93;;
6215;SDS011;3141;49.234;9.326;2023-04-29T03:39:33;0.60;;;0.60;;
6215;SDS011;3141;49.234;9.326;2023-04-29T03:40:15;0.57;;;0.57;;
6215;SDS011;3141;49.234;9.326;2023-04-29T03:40:58;0.60;;;0.60;;
6215;SDS011;3141;49.234;9.326;2023-04-29T03:41:40;1.40;;;0.97;;
6215;SDS011;3141;49.234;9.326;2023-04-29T03:42:22;0.60;;;0.60;;
6215;SDS011;3141;49.234;9.326;2023-04-29T03:43:05;0.50;;;0.50;;
6215;SDS011;3141;49.234;9.326;2023-04-29T03:43:50;0.60;;;0.60;;
6215;SDS011;3141;49.234;9.326;2023-04-29T03:44:32;0.77;;;0.77;;
6215;SDS011;3141;49.234;9.326;2023-04-29T03:45:15;1.03;;;1.03;;
6215;SDS011;3141;49.234;9.326;2023-04-29T03:45:57;0.60;;;0.60;;
6215;SDS011;3141;49.234;9.326;2023-04-29T03:46:40;0.90;;;0.90;;
6215;SDS011;3141;49.234;9.326;2023-04-29T03:47:22;0.80;;;0.80;;
6215;SDS011;3141;49.234;9.326;2023-04-29T03:48:04;1.03;;;0.90;;
6215;SDS011;3141;49.234;9.326;2023-04-29T03:48:47;0.90;;;0.83;;
6215;SDS011;3141;49.234;9.326;2023-04-29T03:49:29;0.53;;;0.53;;
6215;SDS011;3141;49.234;9.326;2023-04-29T03:50:11;1.40;;;1.20;;
6215;SDS011;3141;49.234;9.326;2023-04-29T03:50:54;0.60;;;0.60;;
6215;SDS011;3141;49.234;9.326;2023-04-29T03:51:36;1.40;;;0.93;;
6215;SDS011;3141;49.234;9.326;2023-04-29T03:52:19;0.63;;;0.63;;
6215;SDS011;3141;49.234;9.326;2023-04-29T03:53:02;0.57;;;0.57;;
6215;SDS011;3141;49.234;9.326;2023-04-29T03:53:44;0.87;;;0.87;;
6215;SDS011;3141;49.234;9.326;2023-04-29T03:54:27;0.87;;;0.87;;
6215;SDS011;3141;49.234;9.326;2023-04-29T03:55:09;0.80;;;0.80;;
6215;SDS011;3141;49.234;9.326;2023-04-29T03:55:52;0.65;;;0.65;;
6215;SDS011;3141;49.234;9.326;2023-04-29T03:56:35;3.20;;;1.10;;
6215;SDS011;3141;49.234;9.326;2023-04-29T03:57:17;1.40;;;0.73;;
6215;SDS011;3141;49.234;9.326;2023-04-29T03:57:59;1.07;;;1.07;;
6215;SDS011;3141;49.234;9.326;2023-04-29T03:58:42;0.50;;;0.50;;
6215;SDS011;3141;49.234;9.326;2023-04-29T03:59:24;1.53;;;1.43;;
6215;SDS011;3141;49.234;9.326;2023-04-29T04:00:06;1.73;;;1.63;;
6215;SDS011;3141;49.234;9.326;2023-04-29T04:00:50;1.42;;;1.33;;
6215;SDS011;3141;49.234;9.326;2023-04-29T04:01:32;1.53;;;1.47;;
6215;SDS011;3141;49.234;9.326;2023-04-29T04:02:15;1.00;;;1.00;;
6215;SDS011;3141;49.234;9.326;2023-04-29T04:02:58;1.50;;;1.40;;
6215;SDS011;3141;49.234;9.326;2023-04-29T04:03:40;4.63;;;1.70;;
6215;SDS011;3141;49.234;9.326;2023-04-29T04:04:24;1.42;;;1.40;;
6215;SDS011;3141;49.234;9.326;2023-04-29T04:05:07;1.37;;;1.17;;
6215;SDS011;3141;49.234;9.326;2023-04-29T04:05:49;1.00;;;1.00;;
6215;SDS011;3141;49.234;9.326;2023-04-29T04:06:31;2.03;;;1.83;;
6215;SDS011;3141;49.234;9.326;2023-04-29T04:07:14;1.00;;;1.00;;
6215;SDS011;3141;49.234;9.326;2023-04-29T04:07:56;1.37;;;0.90;;
6215;SDS011;3141;49.234;9.326;2023-04-29T04:08:38;3.93;;;2.33;;
6215;SDS011;3141;49.234;9.326;2023-04-29T04:09:22;3.97;;;1.33;;
6215;SDS011;3141;49.234;9.326;2023-04-29T04:10:04;4.53;;;1.70;;
6215;SDS011;3141;49.234;9.326;2023-04-29T04:10:47;3.97;;;2.60;;
6215;SDS011;3141;49.234;9.326;2023-04-29T04:11:29;2.00;;;1.53;;
6215;SDS011;3141;49.234;9.326;2023-04-29T04:12:11;1.63;;;1.53;;
6215;SDS011;3141;49.234;9.326;2023-04-29T04:12:54;3.70;;;2.33;;
6215;SDS011;3141;49.234;9.326;2023-04-29T04:13:36;1.73;;;1.63;;
6215;SDS011;3141;49.234;9.326;2023-04-29T04:14:18;1.67;;;1.37;;
6215;SDS011;3141;49.234;9.326;2023-04-29T04:15:01;1.53;;;1.43;;
6215;SDS011;3141;49.234;9.326;2023-04-29T04:15:48;4.07;;;1.58;;
6215;SDS011;3141;49.234;9.326;2023-04-29T04:16:32;3.05;;;2.30;;
6215;SDS011;3141;49.234;9.326;2023-04-29T04:17:14;3.37;;;1.27;;
6215;SDS011;3141;49.234;9.326;2023-04-29T04:17:56;1.30;;;1.07;;
6215;SDS011;3141;49.234;9.326;2023-04-29T04:18:39;1.90;;;1.80;;
6215;SDS011;3141;49.234;9.326;2023-04-29T04:19:21;1.53;;;1.43;;
6215;SDS011;3141;49.234;9.326;2023-04-29T04:20:04;2.07;;;1.40;;
6215;SDS011;3141;49.234;9.326;2023-04-29T04:20:46;1.27;;;1.17;;
6215;SDS011;3141;49.234;9.326;2023-04-29T04:21:29;2.13;;;2.03;;
6215;SDS011;3141;49.234;9.326;2023-04-29T04:22:12;0.95;;;0.95;;
6215;SDS011;3141;49.234;9.326;2023-04-29T04:22:54;2.93;;;1.80;;
6215;SDS011;3141;49.234;9.326;2023-04-29T04:23:37;5.03;;;2.20;;
6215;SDS011;3141;49.234;9.326;2023-04-29T04:24:22;1.80;;;1.70;;
6215;SDS011;3141;49.234;9.326;2023-04-29T04:25:04;2.97;;;1.80;;
6215;SDS011;3141;49.234;9.326;2023-04-29T04:25:48;2.33;;;2.17;;
6215;SDS011;3141;49.234;9.326;2023-04-29T04:26:30;3.53;;;3.10;;
6215;SDS011;3141;49.234;9.326;2023-04-29T04:27:12;3.27;;;2.60;;
6215;SDS011;3141;49.234;9.326;2023-04-29T04:27:55;2.70;;;2.50;;
6215;SDS011;3141;49.234;9.326;2023-04-29T04:28:37;3.23;;;2.80;;
6215;SDS011;3141;49.234;9.326;2023-04-29T04:29:19;6.17;;;2.10;;
6215;SDS011;3141;49.234;9.326;2023-04-29T04:30:02;5.40;;;3.03;;
6215;SDS011;3141;49.234;9.326;2023-04-29T04:30:45;23.00;;;4.17;;
6215;SDS011;3141;49.234;9.326;2023-04-29T04:31:27;2.90;;;2.50;;
6215;SDS011;3141;49.234;9.326;2023-04-29T04:32:10;2.50;;;2.30;;
6215;SDS011;3141;49.234;9.326;2023-04-29T04:32:53;1.67;;;1.50;;
6215;SDS011;3141;49.234;9.326;2023-04-29T04:33:35;2.87;;;2.67;;
6215;SDS011;3141;49.234;9.326;2023-04-29T04:34:17;3.20;;;2.20;;
6215;SDS011;3141;49.234;9.326;2023-04-29T04:35:00;2.10;;;2.00;;
6215;SDS011;3141;49.234;9.326;2023-04-29T04:35:42;11.73;;;3.47;;
6215;SDS011;3141;49.234;9.326;2023-04-29T04:36:24;4.53;;;2.10;;
6215;SDS011;3141;49.234;9.326;2023-04-29T04:37:07;3.53;;;2.80;;
6215;SDS011;3141;49.234;9.326;2023-04-29T04:37:49;10.83;;;2.33;;
6215;SDS011;3141;49.234;9.326;2023-04-29T04:38:32;2.63;;;1.97;;
6215;SDS011;3141;49.234;9.326;2023-04-29T04:39:14;3.40;;;3.13;;